createdAt,value
2018-01-30T00:02:01.733Z,95.90
2018-01-30T00:04:29.184Z,95.40
2018-01-30T00:06:56.620Z,96.20
2018-01-30T00:09:24.834Z,97.40
2018-01-30T00:11:52.256Z,97.40
2018-01-30T00:14:20.462Z,97.00
2018-01-30T00:16:47.964Z,97.00
2018-01-30T00:19:15.393Z,97.10
2018-01-30T00:21:42.836Z,97.40
2018-01-30T00:24:10.266Z,96.80
2018-01-30T00:26:38.469Z,96.80
2018-01-30T00:29:05.933Z,96.70
2018-01-30T00:31:33.360Z,96.50
2018-01-30T00:34:00.818Z,96.70
2018-01-30T00:36:29.002Z,96.80
2018-01-30T00:38:56.445Z,96.80
2018-01-30T00:41:23.869Z,96.80
2018-01-30T00:43:51.316Z,96.40
2018-01-30T00:46:18.749Z,96.30
2018-01-30T00:48:46.196Z,95.80
2018-01-30T00:51:13.631Z,96.20
2018-01-30T00:53:41.839Z,96.10
2018-01-30T00:56:09.272Z,96.10
2018-01-30T00:58:36.739Z,96.50
2018-01-30T01:01:04.198Z,96.90
2018-01-30T01:03:31.642Z,96.80
2018-01-30T01:05:59.092Z,97.10
2018-01-30T01:08:27.288Z,96.60
2018-01-30T01:10:54.730Z,96.60
2018-01-30T01:13:22.182Z,95.90
2018-01-30T01:15:49.616Z,96.10
2018-01-30T01:18:17.046Z,97.00
2018-01-30T01:20:44.483Z,97.20
2018-01-30T01:23:12.083Z,96.30
2018-01-30T01:25:39.528Z,95.90
2018-01-30T01:28:06.973Z,95.70
2018-01-30T01:30:34.420Z,95.70
2018-01-30T01:33:01.848Z,96.40
2018-01-30T01:35:29.330Z,95.70
2018-01-30T01:37:56.765Z,95.50
2018-01-30T01:40:24.207Z,95.70
2018-01-30T01:42:52.409Z,97.00
2018-01-30T01:45:19.843Z,97.00
2018-01-30T01:47:48.108Z,97.20
2018-01-30T01:50:16.320Z,97.60
2018-01-30T01:52:44.508Z,97.20
2018-01-30T01:55:12.907Z,96.90
2018-01-30T01:57:40.342Z,96.90
2018-01-30T02:00:08.749Z,96.50
2018-01-30T02:02:36.181Z,96.60
2018-01-30T02:05:03.608Z,96.60
2018-01-30T02:07:31.800Z,96.00
2018-01-30T02:09:59.292Z,96.00
2018-01-30T02:12:27.446Z,96.50
2018-01-30T02:14:54.908Z,96.50
2018-01-30T02:17:22.320Z,96.60
2018-01-30T02:19:50.569Z,95.80
2018-01-30T02:22:18.000Z,95.80
2018-01-30T02:24:45.450Z,95.50
2018-01-30T02:27:12.885Z,95.90
2018-01-30T02:29:40.312Z,95.60
2018-01-30T02:32:07.736Z,95.50
2018-01-30T02:34:35.176Z,95.50
2018-01-30T02:37:02.624Z,95.60
2018-01-30T02:39:30.060Z,96.00
2018-01-30T02:41:58.272Z,95.50
2018-01-30T02:44:25.797Z,95.40
2018-01-30T02:46:54.019Z,95.50
2018-01-30T02:49:21.437Z,95.50
2018-01-30T02:51:48.882Z,96.00
2018-01-30T02:54:17.108Z,96.40
2018-01-30T02:56:44.536Z,96.30
2018-01-30T02:59:12.233Z,96.00
2018-01-30T03:01:39.666Z,96.20
2018-01-30T03:04:07.093Z,96.70
2018-01-30T03:06:35.289Z,96.50
2018-01-30T03:09:02.718Z,96.50
2018-01-30T03:11:30.931Z,95.90
2018-01-30T03:13:58.360Z,95.90
2018-01-30T03:16:26.564Z,95.60
2018-01-30T03:18:53.984Z,95.60
2018-01-30T03:21:22.195Z,95.60
2018-01-30T03:23:49.612Z,95.60
2018-01-30T03:26:17.809Z,95.70
2018-01-30T03:28:45.265Z,95.70
2018-01-30T03:31:13.636Z,96.00
2018-01-30T03:33:41.838Z,95.90
2018-01-30T03:36:09.301Z,95.90
2018-01-30T03:38:36.739Z,96.10
2018-01-30T03:41:04.188Z,96.30
2018-01-30T03:43:32.372Z,96.30
2018-01-30T03:45:59.808Z,96.20
2018-01-30T03:48:28.012Z,96.00
2018-01-30T03:50:55.432Z,95.90
2018-01-30T03:53:23.629Z,95.90
2018-01-30T03:55:51.090Z,95.90
2018-01-30T03:58:19.272Z,96.40
2018-01-30T04:00:46.705Z,96.40
2018-01-30T04:03:14.930Z,96.40
2018-01-30T04:05:42.376Z,96.30
2018-01-30T04:08:09.824Z,96.50
2018-01-30T04:10:37.277Z,96.60
2018-01-30T04:13:05.469Z,96.50
2018-01-30T04:15:32.914Z,96.50
2018-01-30T04:18:00.343Z,97.00
2018-01-30T04:20:28.546Z,97.60
2018-01-30T04:22:55.964Z,97.60
2018-01-30T04:25:24.168Z,97.60
2018-01-30T04:27:51.615Z,97.60
2018-01-30T04:30:19.822Z,97.40
2018-01-30T04:32:47.246Z,97.30
2018-01-30T04:35:15.436Z,97.00
2018-01-30T04:37:42.865Z,97.00
2018-01-30T04:40:11.057Z,97.20
2018-01-30T04:42:38.500Z,97.20
2018-01-30T04:45:06.700Z,97.20
2018-01-30T04:47:34.142Z,97.20
2018-01-30T04:50:02.332Z,97.50
2018-01-30T04:52:29.779Z,97.50
2018-01-30T04:54:57.202Z,97.50
2018-01-30T04:57:24.645Z,97.10
2018-01-30T04:59:52.090Z,96.70
2018-01-30T05:02:19.533Z,96.80
2018-01-30T05:04:46.979Z,97.20
2018-01-30T05:07:14.437Z,97.30
2018-01-30T05:09:41.852Z,97.40
2018-01-30T05:12:09.308Z,97.90
2018-01-30T05:14:36.745Z,98.00
2018-01-30T05:17:05.104Z,98.20
2018-01-30T05:19:32.566Z,98.00
2018-01-30T05:21:59.992Z,98.00
2018-01-30T05:24:27.430Z,98.00
2018-01-30T05:26:55.645Z,97.90
2018-01-30T05:29:23.072Z,97.90
2018-01-30T05:31:50.549Z,98.00
2018-01-30T05:34:18.013Z,98.80
2018-01-30T05:36:45.439Z,98.50
2018-01-30T05:39:13.632Z,98.50
2018-01-30T05:41:41.076Z,98.50
2018-01-30T05:44:09.281Z,98.10
2018-01-30T05:46:36.725Z,98.10
2018-01-30T05:49:04.156Z,97.80
2018-01-30T05:51:32.433Z,97.60
2018-01-30T05:53:59.809Z,97.50
2018-01-30T05:56:27.241Z,97.40
2018-01-30T05:58:55.447Z,97.90
2018-01-30T06:01:22.885Z,97.80
2018-01-30T06:03:51.073Z,98.20
2018-01-30T06:06:18.501Z,98.20
2018-01-30T06:08:45.960Z,98.00
2018-01-30T06:11:14.168Z,98.30
2018-01-30T06:13:42.388Z,98.00
2018-01-30T06:16:09.812Z,98.40
2018-01-30T06:18:37.315Z,98.00
2018-01-30T06:21:05.465Z,98.20
2018-01-30T06:23:33.664Z,97.80
2018-01-30T06:26:01.093Z,97.80
2018-01-30T06:28:28.567Z,97.60
2018-01-30T06:30:56.006Z,97.70
2018-01-30T06:33:23.438Z,97.50
2018-01-30T06:35:50.872Z,97.40
2018-01-30T06:38:18.301Z,97.50
2018-01-30T06:40:45.722Z,97.80
2018-01-30T06:43:13.160Z,97.80
2018-01-30T06:45:40.575Z,97.70
2018-01-30T06:48:08.592Z,97.70
2018-01-30T06:50:36.008Z,97.60
2018-01-30T06:53:03.449Z,97.60
2018-01-30T06:55:30.880Z,98.10
2018-01-30T06:57:58.321Z,98.30
2018-01-30T07:00:26.579Z,98.70
2018-01-30T07:02:54.789Z,97.90
2018-01-30T07:05:22.212Z,97.90
2018-01-30T07:07:50.429Z,97.30
2018-01-30T07:10:17.876Z,97.30
2018-01-30T07:12:45.334Z,97.30
2018-01-30T07:15:12.769Z,97.20
2018-01-30T07:17:40.209Z,97.80
2018-01-30T07:20:08.405Z,97.40
2018-01-30T07:22:35.836Z,97.30
2018-01-30T07:25:04.056Z,97.10
2018-01-30T07:27:31.492Z,97.10
2018-01-30T07:29:58.925Z,97.10
2018-01-30T07:32:27.157Z,97.20
2018-01-30T07:34:54.561Z,96.90
2018-01-30T07:37:22.764Z,96.60
2018-01-30T07:39:50.192Z,96.60
2018-01-30T07:42:18.408Z,96.70
2018-01-30T07:44:45.837Z,96.70
2018-01-30T07:47:14.045Z,97.40
2018-01-30T07:49:41.480Z,97.40
2018-01-30T07:52:08.946Z,97.60
2018-01-30T07:54:36.380Z,97.90
2018-01-30T07:57:04.589Z,97.30
2018-01-30T07:59:32.023Z,97.30
2018-01-30T08:02:00.213Z,96.90
2018-01-30T08:04:27.652Z,96.90
2018-01-30T08:06:55.906Z,97.00
2018-01-30T08:09:23.348Z,97.20
2018-01-30T08:11:50.802Z,96.70
2018-01-30T08:14:18.219Z,96.20
2018-01-30T08:16:45.646Z,96.20
2018-01-30T08:19:13.881Z,96.10
2018-01-30T08:21:42.075Z,95.90
2018-01-30T08:24:09.561Z,95.90
2018-01-30T08:26:37.785Z,96.90
2018-01-30T08:29:05.210Z,97.00
2018-01-30T08:31:32.642Z,96.60
2018-01-30T08:34:00.850Z,95.30
2018-01-30T08:36:28.272Z,95.30
2018-01-30T08:38:56.489Z,95.00
2018-01-30T08:41:23.921Z,95.00
2018-01-30T08:43:52.138Z,95.00
2018-01-30T08:46:19.551Z,95.00
2018-01-30T08:48:47.001Z,94.70
2018-01-30T08:51:15.201Z,93.50
2018-01-30T08:53:42.660Z,93.50
2018-01-30T08:56:10.096Z,91.80
2018-01-30T08:58:38.300Z,88.00
2018-01-30T09:01:05.761Z,87.90
2018-01-30T09:03:33.200Z,85.40
2018-01-30T09:06:00.624Z,80.50
2018-01-30T09:08:28.066Z,79.20
2018-01-30T09:10:55.525Z,81.70
2018-01-30T09:13:22.984Z,83.50
2018-01-30T09:15:50.521Z,83.90
2018-01-30T09:18:17.880Z,82.20
2018-01-30T09:20:46.076Z,77.10
2018-01-30T09:23:13.525Z,77.00
2018-01-30T09:25:40.964Z,74.80
2018-01-30T09:28:08.392Z,75.70
2018-01-30T09:30:35.832Z,75.30
2018-01-30T09:33:04.039Z,83.00
2018-01-30T09:35:31.476Z,83.00
2018-01-30T09:37:59.673Z,85.40
2018-01-30T09:40:27.106Z,85.40
2018-01-30T09:42:54.548Z,89.00
2018-01-30T09:45:22.750Z,90.90
2018-01-30T09:47:50.176Z,90.80
2018-01-30T09:50:18.378Z,90.80
2018-01-30T09:52:45.826Z,90.80
2018-01-30T09:55:14.026Z,91.00
2018-01-30T09:57:41.453Z,90.90
2018-01-30T10:00:09.660Z,91.00
2018-01-30T10:02:37.088Z,91.00
2018-01-30T10:05:05.317Z,88.30
2018-01-30T10:07:33.304Z,88.20
2018-01-30T10:10:00.749Z,85.00
2018-01-30T10:12:28.176Z,85.80
2018-01-30T10:14:55.607Z,86.20
2018-01-30T10:17:23.066Z,82.30
2018-01-30T10:19:51.265Z,81.20
2018-01-30T10:22:18.700Z,81.20
2018-01-30T10:24:46.152Z,78.40
2018-01-30T10:27:14.350Z,79.00
2018-01-30T10:29:41.772Z,79.00
2018-01-30T10:32:09.987Z,84.60
2018-01-30T10:34:37.429Z,84.70
2018-01-30T10:37:04.868Z,86.30
2018-01-30T10:39:33.088Z,89.30
2018-01-30T10:42:00.527Z,89.30
2018-01-30T10:44:27.960Z,90.10
2018-01-30T10:46:56.166Z,89.20
2018-01-30T10:49:23.615Z,89.20
2018-01-30T10:51:51.056Z,88.10
2018-01-30T10:54:19.314Z,88.40
2018-01-30T10:56:46.735Z,88.30
2018-01-30T10:59:14.156Z,86.10
2018-01-30T11:01:41.596Z,86.40
2018-01-30T11:04:09.831Z,82.60
2018-01-30T11:06:37.277Z,82.50
2018-01-30T11:09:04.708Z,80.90
2018-01-30T11:11:32.164Z,78.80
2018-01-30T11:13:59.584Z,78.90
2018-01-30T11:16:27.032Z,80.20
2018-01-30T11:18:54.496Z,77.90
2018-01-30T11:21:21.941Z,79.80
2018-01-30T11:23:49.381Z,80.60
2018-01-30T11:26:16.830Z,78.60
2018-01-30T11:28:44.318Z,78.40
2018-01-30T11:31:11.709Z,77.00
2018-01-30T11:33:39.927Z,80.30
2018-01-30T11:36:07.368Z,80.30
2018-01-30T11:38:34.821Z,81.50
2018-01-30T11:41:02.276Z,83.00
2018-01-30T11:43:29.701Z,83.60
2018-01-30T11:45:57.912Z,77.60
2018-01-30T11:48:25.344Z,77.50
2018-01-30T11:50:53.556Z,80.90
2018-01-30T11:53:21.030Z,81.00
2018-01-30T11:55:48.447Z,83.30
2018-01-30T11:58:15.880Z,83.70
2018-01-30T12:00:44.111Z,84.80
2018-01-30T12:03:11.541Z,84.70
2018-01-30T12:05:38.992Z,86.00
2018-01-30T12:08:06.445Z,84.10
2018-01-30T12:10:34.516Z,85.70
2018-01-30T12:13:02.722Z,88.00
2018-01-30T12:15:30.145Z,87.90
2018-01-30T12:17:58.336Z,85.40
2018-01-30T12:20:27.053Z,83.50
2018-01-30T12:22:54.497Z,83.50
2018-01-30T12:25:21.936Z,83.50
2018-01-30T12:27:49.377Z,82.40
2018-01-30T12:30:17.613Z,79.40
2018-01-30T12:32:45.057Z,79.40
2018-01-30T12:35:13.413Z,80.20
2018-01-30T12:37:40.868Z,78.50
2018-01-30T12:40:09.072Z,79.70
2018-01-30T12:42:36.510Z,79.50
2018-01-30T12:45:03.949Z,78.20
2018-01-30T12:47:31.444Z,79.30
2018-01-30T12:49:58.856Z,80.40
2018-01-30T12:52:26.292Z,80.00
2018-01-30T12:54:54.510Z,83.20
2018-01-30T12:57:21.971Z,82.50
2018-01-30T12:59:49.404Z,83.20
2018-01-30T13:02:16.860Z,82.80
2018-01-30T13:04:44.287Z,84.90
2018-01-30T13:07:11.726Z,86.70
2018-01-30T13:09:39.188Z,86.90
2018-01-30T13:12:06.621Z,89.00
2018-01-30T13:14:34.054Z,89.30
2018-01-30T13:17:01.492Z,90.00
2018-01-30T13:19:29.712Z,85.00
2018-01-30T13:21:57.144Z,84.80
2018-01-30T13:24:24.572Z,84.50
2018-01-30T13:26:52.784Z,79.50
2018-01-30T13:29:20.213Z,79.10
2018-01-30T13:31:48.416Z,74.00
2018-01-30T13:34:15.888Z,73.90
2018-01-30T13:36:43.330Z,73.90
2018-01-30T13:39:10.756Z,69.80
2018-01-30T13:41:38.966Z,72.40
2018-01-30T13:44:06.409Z,72.30
2018-01-30T13:46:33.879Z,73.30
2018-01-30T13:49:01.317Z,72.80
2018-01-30T13:51:29.523Z,69.60
2018-01-30T13:53:56.964Z,69.60
2018-01-30T13:56:24.411Z,72.70
2018-01-30T13:58:52.607Z,75.60
2018-01-30T14:01:20.042Z,75.60
2018-01-30T14:03:48.232Z,73.60
2018-01-30T14:06:15.667Z,73.60
2018-01-30T14:08:43.917Z,74.10
2018-01-30T14:11:11.398Z,74.00
2018-01-30T14:13:39.599Z,72.60
2018-01-30T14:16:07.033Z,72.50
2018-01-30T14:18:35.246Z,72.30
2018-01-30T14:21:02.672Z,72.20
2018-01-30T14:23:30.117Z,73.60
2018-01-30T14:25:58.313Z,75.00
2018-01-30T14:28:25.757Z,75.00
2018-01-30T14:30:53.968Z,73.40
2018-01-30T14:33:21.414Z,73.30
2018-01-30T14:35:48.844Z,74.10
2018-01-30T14:38:17.036Z,77.10
2018-01-30T14:40:44.468Z,77.00
2018-01-30T14:43:12.672Z,78.90
2018-01-30T14:45:40.112Z,78.90
2018-01-30T14:48:08.345Z,79.00
2018-01-30T14:50:35.797Z,78.90
2018-01-30T14:53:03.239Z,77.90
2018-01-30T14:55:30.675Z,78.20
2018-01-30T14:57:58.104Z,77.10
2018-01-30T15:00:26.323Z,77.30
2018-01-30T15:02:53.766Z,77.30
2018-01-30T15:05:21.213Z,77.40
2018-01-30T15:07:49.404Z,76.90
2018-01-30T15:10:16.832Z,76.90
2018-01-30T15:12:45.813Z,78.40
2018-01-30T15:15:13.241Z,78.40
2018-01-30T15:17:40.694Z,80.00
2018-01-30T15:20:08.135Z,80.30
2018-01-30T15:22:35.594Z,80.40
2018-01-30T15:25:03.052Z,79.50
2018-01-30T15:27:30.484Z,80.40
2018-01-30T15:29:58.691Z,81.40
2018-01-30T15:32:26.132Z,81.30
2018-01-30T15:34:53.581Z,82.30
2018-01-30T15:37:21.048Z,82.70
2018-01-30T15:39:48.481Z,81.70
2018-01-30T15:42:16.685Z,82.30
2018-01-30T15:44:44.110Z,82.20
2018-01-30T15:47:12.321Z,81.20
2018-01-30T15:49:39.740Z,81.10
2018-01-30T15:52:07.974Z,80.00
2018-01-30T15:54:35.406Z,79.80
2018-01-30T15:57:02.839Z,80.50
2018-01-30T15:59:31.054Z,80.80
2018-01-30T16:01:58.495Z,80.80
2018-01-30T16:04:25.950Z,81.90
2018-01-30T16:06:54.129Z,82.40
2018-01-30T16:09:21.599Z,82.40
2018-01-30T16:11:49.024Z,82.90
2018-01-30T16:14:17.314Z,82.90
2018-01-30T16:16:45.495Z,83.60
2018-01-30T16:19:12.928Z,83.60
2018-01-30T16:21:41.132Z,85.10
2018-01-30T16:24:08.722Z,85.10
2018-01-30T16:26:36.187Z,85.40
2018-01-30T16:29:03.607Z,85.50
2018-01-30T16:31:31.052Z,85.40
2018-01-30T16:33:58.486Z,85.20
2018-01-30T16:36:26.701Z,85.60
2018-01-30T16:38:54.146Z,85.50
2018-01-30T16:41:21.573Z,86.10
2018-01-30T16:43:49.798Z,87.30
2018-01-30T16:46:17.261Z,87.20
2018-01-30T16:48:44.696Z,86.70
2018-01-30T16:51:12.133Z,87.10
2018-01-30T16:53:39.574Z,87.60
2018-01-30T16:56:07.771Z,87.80
2018-01-30T16:58:35.205Z,87.80
2018-01-30T17:01:03.413Z,88.40
2018-01-30T17:03:30.854Z,88.20
2018-01-30T17:05:59.055Z,87.70
2018-01-30T17:08:26.521Z,87.60
2018-01-30T17:10:53.969Z,87.90
2018-01-30T17:13:21.401Z,87.50
2018-01-30T17:15:49.592Z,88.10
2018-01-30T17:18:17.057Z,88.10
2018-01-30T17:20:44.733Z,87.70
2018-01-30T17:23:12.168Z,87.90
2018-01-30T17:25:39.608Z,88.10
2018-01-30T17:28:07.837Z,87.50
2018-01-30T17:30:35.256Z,87.40
2018-01-30T17:33:02.696Z,87.20
2018-01-30T17:35:30.894Z,88.00
2018-01-30T17:37:58.333Z,87.80
2018-01-30T17:40:26.564Z,87.80
2018-01-30T17:42:53.995Z,87.80
2018-01-30T17:45:21.437Z,87.70
2018-01-30T17:47:48.876Z,87.90
2018-01-30T17:50:17.085Z,87.80
2018-01-30T17:52:44.517Z,87.80
2018-01-30T17:55:11.954Z,87.70
2018-01-30T17:57:39.420Z,87.40
2018-01-30T18:00:07.633Z,88.10
2018-01-30T18:02:35.060Z,88.10
2018-01-30T18:05:03.265Z,88.30
2018-01-30T18:07:30.704Z,88.20
2018-01-30T18:09:58.900Z,87.60
2018-01-30T18:12:26.322Z,87.60
2018-01-30T18:14:54.668Z,87.70
2018-01-30T18:17:22.892Z,87.70
2018-01-30T18:19:50.324Z,88.50
2018-01-30T18:22:18.542Z,88.30
2018-01-30T18:24:45.972Z,88.30
2018-01-30T18:27:13.405Z,88.40
2018-01-30T18:29:40.845Z,89.80
2018-01-30T18:32:08.273Z,90.00
2018-01-30T18:34:35.736Z,90.20
2018-01-30T18:37:03.220Z,90.40
2018-01-30T18:39:30.595Z,90.40
2018-01-30T18:41:58.816Z,90.60
2018-01-30T18:44:26.250Z,90.60
2018-01-30T18:46:53.683Z,90.80
2018-01-30T18:49:21.192Z,90.70
2018-01-30T18:51:48.601Z,90.80
2018-01-30T18:54:16.820Z,91.20
2018-01-30T18:56:44.240Z,91.00
2018-01-30T18:59:12.453Z,91.10
2018-01-30T19:01:39.878Z,91.10
2018-01-30T19:04:08.125Z,91.00
2018-01-30T19:06:35.564Z,91.00
2018-01-30T19:09:03.020Z,90.80
2018-01-30T19:11:30.439Z,90.70
2018-01-30T19:13:58.635Z,90.80
2018-01-30T19:16:26.095Z,90.80
2018-01-30T19:18:53.514Z,91.10
2018-01-30T19:21:21.712Z,91.00
2018-01-30T19:23:49.132Z,91.00
2018-01-30T19:26:17.342Z,90.80
2018-01-30T19:28:44.776Z,90.80
2018-01-30T19:31:12.969Z,91.20
2018-01-30T19:33:40.397Z,91.20
2018-01-30T19:36:07.826Z,91.40
2018-01-30T19:38:35.256Z,91.60
2018-01-30T19:41:02.695Z,91.40
2018-01-30T19:43:30.129Z,91.40
2018-01-30T19:45:58.328Z,91.60
2018-01-30T19:48:25.767Z,91.20
2018-01-30T19:50:53.983Z,91.70
2018-01-30T19:53:21.393Z,91.70
2018-01-30T19:55:49.597Z,91.50
2018-01-30T19:58:17.045Z,91.50
2018-01-30T20:00:45.255Z,91.10
2018-01-30T20:03:12.673Z,91.10
2018-01-30T20:05:40.864Z,91.40
2018-01-30T20:08:08.320Z,91.40
2018-01-30T20:10:35.792Z,91.20
2018-01-30T20:13:03.195Z,91.70
2018-01-30T20:15:30.629Z,90.90
2018-01-30T20:17:58.077Z,90.90
2018-01-30T20:20:25.506Z,91.00
2018-01-30T20:22:52.924Z,90.90
2018-01-30T20:25:20.434Z,91.20
2018-01-30T20:27:47.852Z,91.40
2018-01-30T20:30:16.065Z,91.30
2018-01-30T20:32:43.489Z,91.20
2018-01-30T20:35:11.680Z,91.00
2018-01-30T20:37:39.133Z,91.00
2018-01-30T20:40:06.562Z,91.00
2018-01-30T20:42:33.997Z,90.80
2018-01-30T20:45:01.420Z,90.70
2018-01-30T20:47:28.844Z,90.60
2018-01-30T20:49:57.044Z,90.70
2018-01-30T20:52:24.485Z,90.70
2018-01-30T20:54:52.677Z,90.50
2018-01-30T20:57:20.393Z,90.40
2018-01-30T20:59:47.828Z,90.60
2018-01-30T21:02:15.269Z,90.80
2018-01-30T21:04:42.721Z,90.70
2018-01-30T21:07:10.146Z,90.60
2018-01-30T21:09:38.333Z,90.60
2018-01-30T21:12:05.765Z,90.60
2018-01-30T21:14:33.208Z,90.30
2018-01-30T21:17:00.652Z,90.30
2018-01-30T21:19:28.067Z,90.30
2018-01-30T21:21:55.501Z,90.10
2018-01-30T21:24:23.695Z,90.20
2018-01-30T21:26:51.124Z,90.20
2018-01-30T21:29:18.564Z,90.20
2018-01-30T21:31:45.993Z,90.10
2018-01-30T21:34:13.484Z,90.10
2018-01-30T21:36:40.910Z,90.10
2018-01-30T21:39:08.343Z,90.30
2018-01-30T21:41:35.769Z,90.30
2018-01-30T21:44:03.212Z,90.60
2018-01-30T21:46:30.652Z,90.50
2018-01-30T21:48:58.090Z,90.60
2018-01-30T21:51:25.521Z,90.70
2018-01-30T21:53:53.708Z,90.30
2018-01-30T21:56:21.132Z,90.30
2018-01-30T21:58:48.568Z,90.30
2018-01-30T22:01:15.996Z,90.30
2018-01-30T22:03:43.441Z,90.00
2018-01-30T22:06:10.909Z,90.10
2018-01-30T22:08:38.339Z,90.40
2018-01-30T22:11:05.764Z,90.50
2018-01-30T22:13:33.366Z,90.50
2018-01-30T22:16:00.757Z,90.50
2018-01-30T22:18:28.181Z,90.40
2018-01-30T22:20:55.617Z,90.30
2018-01-30T22:23:23.810Z,90.10
2018-01-30T22:25:51.256Z,90.10
2018-01-30T22:28:18.690Z,90.00
2018-01-30T22:30:46.112Z,89.60
2018-01-30T22:33:13.557Z,90.20
2018-01-30T22:35:40.980Z,90.40
2018-01-30T22:38:09.181Z,90.60
2018-01-30T22:40:36.599Z,90.60
2018-01-30T22:43:04.030Z,90.80
2018-01-30T22:45:31.452Z,90.60
